Time;durP1;ratioP1;P1;durP2;ratioP2;P2;SDS_P1;SDS_P2;PMS_P1;PMS_P2;Temp;Humidity;BMP_temperature;BMP_pressure;BME280_temperature;BME280_humidity;BME280_pressure;Samples;Min_cycle;Max_cycle;Signal;HPM_P1;HPM_P2
2024/02/04 00:02:20;;;;;;;34.38;8.00;;;;;;;;;;5071772;28;20482;-86
2024/02/04 00:04:51;;;;;;;37.38;8.48;;;;;;;;;;5057770;28;20085;-85
2024/02/04 00:07:19;;;;;;;32.30;8.38;;;;;;;;;;5056704;28;20496;-85
2024/02/04 00:09:46;;;;;;;36.47;8.05;;;;;;;;;;5057712;28;20495;-85
2024/02/04 00:12:13;;;;;;;35.47;8.60;;;;;;;;;;5056477;28;20067;-86
2024/02/04 00:14:40;;;;;;;38.38;8.45;;;;;;;;;;5057389;28;20044;-86
2024/02/04 00:17:08;;;;;;;30.90;8.18;;;;;;;;;;5054897;28;20042;-85
2024/02/04 00:19:35;;;;;;;43.22;12.57;;;;;;;;;;5055805;28;20040;-86
2024/02/04 00:22:02;;;;;;;37.40;9.38;;;;;;;;;;5055816;28;20044;-86
2024/02/04 00:24:30;;;;;;;39.90;8.70;;;;;;;;;;5054969;28;20463;-85
2024/02/04 00:26:57;;;;;;;42.90;9.23;;;;;;;;;;5056178;28;20064;-86
2024/02/04 00:29:24;;;;;;;42.20;9.02;;;;;;;;;;5055298;28;20047;-86
2024/02/04 00:31:51;;;;;;;45.28;8.60;;;;;;;;;;5057640;28;20119;-85
2024/02/04 00:34:18;;;;;;;47.83;11.15;;;;;;;;;;5071584;28;20040;-85
2024/02/04 00:36:46;;;;;;;38.53;10.20;;;;;;;;;;5072124;28;20068;-86
2024/02/04 00:39:13;;;;;;;43.67;11.30;;;;;;;;;;5038248;28;20040;-85
2024/02/04 00:41:40;;;;;;;44.10;8.93;;;;;;;;;;5038551;28;20124;-86
2024/02/04 00:44:08;;;;;;;32.47;7.78;;;;;;;;;;5054532;28;20487;-86
2024/02/04 00:46:35;;;;;;;48.13;9.60;;;;;;;;;;5038673;28;20501;-85
2024/02/04 00:49:02;;;;;;;46.95;10.73;;;;;;;;;;5038873;28;20075;-86
2024/02/04 00:51:30;;;;;;;38.92;8.30;;;;;;;;;;5037743;28;20045;-85
2024/02/04 00:53:57;;;;;;;41.47;7.93;;;;;;;;;;5038636;28;20349;-85
2024/02/04 00:56:24;;;;;;;35.78;7.60;;;;;;;;;;5070979;28;20048;-86
2024/02/04 00:58:51;;;;;;;32.80;7.57;;;;;;;;;;5038874;28;20510;-85
2024/02/04 01:01:19;;;;;;;34.20;8.18;;;;;;;;;;5037341;28;20048;-85
2024/02/04 01:03:46;;;;;;;37.95;8.45;;;;;;;;;;5038795;28;20044;-85
2024/02/04 01:06:14;;;;;;;41.50;7.60;;;;;;;;;;5053976;28;20060;-85
2024/02/04 01:08:41;;;;;;;50.22;8.18;;;;;;;;;;5038416;28;20055;-85
2024/02/04 01:11:08;;;;;;;39.58;7.30;;;;;;;;;;5037032;28;20043;-85
2024/02/04 01:13:35;;;;;;;39.78;8.45;;;;;;;;;;5038120;28;20040;-86
2024/02/04 01:16:02;;;;;;;39.00;7.22;;;;;;;;;;5038298;28;20451;-86
2024/02/04 01:18:31;;;;;;;37.92;7.88;;;;;;;;;;5037490;28;20042;-84
2024/02/04 01:21:00;;;;;;;;;;;;;;;;;;5038964;28;20075;-86
2024/02/04 01:23:27;;;;;;;42.67;8.00;;;;;;;;;;5036885;28;19924;-84
2024/02/04 01:25:54;;;;;;;44.20;8.32;;;;;;;;;;5051157;28;20048;-86
2024/02/04 01:28:21;;;;;;;42.30;6.85;;;;;;;;;;5037140;28;20052;-85
2024/02/04 01:30:48;;;;;;;38.38;6.60;;;;;;;;;;5037604;28;20483;-85
2024/02/04 01:33:15;;;;;;;46.97;8.68;;;;;;;;;;5040682;28;20070;-84
2024/02/04 01:35:43;;;;;;;38.92;7.90;;;;;;;;;;5074416;28;20044;-86
2024/02/04 01:38:10;;;;;;;31.00;6.97;;;;;;;;;;5056953;28;20040;-86
2024/02/04 01:40:37;;;;;;;35.65;7.68;;;;;;;;;;5078725;28;20044;-86
2024/02/04 01:43:04;;;;;;;36.35;8.00;;;;;;;;;;5073655;28;20048;-83
2024/02/04 01:45:31;;;;;;;39.08;7.95;;;;;;;;;;5073996;28;20036;-86
2024/02/04 01:47:58;;;;;;;43.05;7.80;;;;;;;;;;5074728;28;20468;-86
2024/02/04 01:50:26;;;;;;;34.22;7.88;;;;;;;;;;5056914;28;20423;-86
2024/02/04 01:52:53;;;;;;;39.95;7.22;;;;;;;;;;5074420;28;20378;-86
2024/02/04 01:55:20;;;;;;;34.45;7.72;;;;;;;;;;5056527;28;20032;-85
2024/02/04 01:57:48;;;;;;;36.20;7.63;;;;;;;;;;5057545;28;20505;-86
2024/02/04 02:00:17;;;;;;;54.25;8.50;;;;;;;;;;5057044;28;20040;-85
2024/02/04 02:02:46;;;;;;;;;;;;;;;;;;5058182;28;20040;-86
2024/02/04 02:05:13;;;;;;;40.20;8.93;;;;;;;;;;5057017;28;19920;-85
2024/02/04 02:07:41;;;;;;;37.42;7.43;;;;;;;;;;5074283;28;20040;-85
2024/02/04 02:10:10;;;;;;;41.53;7.53;;;;;;;;;;5056771;28;20073;-84
2024/02/04 02:12:48;;;;;;;32.08;6.72;;;;;;;;;;5074769;28;20490;-85
2024/02/04 02:15:20;;;;;;;43.87;7.80;;;;;;;;;;5060821;28;20043;-85
2024/02/04 02:18:02;;;;;;;40.95;6.88;;;;;;;;;;5061659;28;20097;-86
2024/02/04 02:20:39;;;;;;;39.55;7.97;;;;;;;;;;5078285;28;20088;-86
2024/02/04 02:23:08;;;;;;;42.65;7.25;;;;;;;;;;5060871;28;20139;-85
2024/02/04 02:25:36;;;;;;;;;;;;;;;;;;5078336;28;20048;-84
2024/02/04 02:28:04;;;;;;;38.58;7.85;;;;;;;;;;5061748;28;19920;-84
2024/02/04 02:30:31;;;;;;;41.67;8.73;;;;;;;;;;5076969;28;20043;-83
2024/02/04 02:32:59;;;;;;;51.17;8.65;;;;;;;;;;5061573;28;20150;-84
2024/02/04 02:35:26;;;;;;;38.80;8.02;;;;;;;;;;5077340;28;20036;-85
2024/02/04 02:38:06;;;;;;;42.33;8.73;;;;;;;;;;5061506;28;20047;-84
2024/02/04 02:40:49;;;;;;;38.78;7.05;;;;;;;;;;5077341;28;20040;-84
2024/02/04 02:43:17;;;;;;;37.45;7.78;;;;;;;;;;5061189;28;20075;-83
2024/02/04 02:45:45;;;;;;;36.20;7.75;;;;;;;;;;5063181;28;20036;-84
2024/02/04 02:48:13;;;;;;;34.80;6.97;;;;;;;;;;5063762;28;20135;-84
2024/02/04 02:50:40;;;;;;;42.88;9.40;;;;;;;;;;5063579;28;20048;-84
2024/02/04 02:53:07;;;;;;;51.60;7.97;;;;;;;;;;5076646;28;20141;-83
2024/02/04 02:55:34;;;;;;;49.92;8.65;;;;;;;;;;5061021;28;20036;-84
2024/02/04 02:58:01;;;;;;;41.28;8.68;;;;;;;;;;5077275;28;20574;-83
2024/02/04 03:00:29;;;;;;;42.00;8.48;;;;;;;;;;5059959;28;20131;-83
2024/02/04 03:02:56;;;;;;;38.72;8.15;;;;;;;;;;5077386;28;20551;-84
2024/02/04 03:05:24;;;;;;;40.53;8.18;;;;;;;;;;5060059;28;20040;-84
2024/02/04 03:07:51;;;;;;;37.17;8.35;;;;;;;;;;5077591;28;20048;-84
2024/02/04 03:10:18;;;;;;;50.47;8.88;;;;;;;;;;5059614;28;20040;-84
2024/02/04 03:12:45;;;;;;;38.70;8.25;;;;;;;;;;5076728;28;20036;-84
2024/02/04 03:15:12;;;;;;;46.65;8.65;;;;;;;;;;5060005;28;20040;-84
2024/02/04 03:17:39;;;;;;;43.25;9.05;;;;;;;;;;5060535;28;20062;-84
2024/02/04 03:20:07;;;;;;;39.53;7.97;;;;;;;;;;5059770;28;20044;-84
2024/02/04 03:22:34;;;;;;;54.80;8.20;;;;;;;;;;5060686;28;20036;-83
2024/02/04 03:25:01;;;;;;;47.05;9.75;;;;;;;;;;5060227;28;20048;-84
2024/02/04 03:27:29;;;;;;;36.28;7.35;;;;;;;;;;5059362;28;20047;-84
2024/02/04 03:29:56;;;;;;;46.20;8.68;;;;;;;;;;5059835;28;20513;-84
2024/02/04 03:32:23;;;;;;;47.33;8.60;;;;;;;;;;5058749;28;20095;-84
2024/02/04 03:34:50;;;;;;;40.67;8.77;;;;;;;;;;5073211;28;20048;-84
2024/02/04 03:37:18;;;;;;;32.63;8.05;;;;;;;;;;5039673;28;20054;-84
2024/02/04 03:39:45;;;;;;;49.53;8.85;;;;;;;;;;5040082;28;20102;-85
2024/02/04 03:42:12;;;;;;;42.63;10.07;;;;;;;;;;5055465;28;20037;-83
2024/02/04 03:44:39;;;;;;;40.30;7.55;;;;;;;;;;5040247;28;20103;-84
2024/02/04 03:47:06;;;;;;;48.60;8.95;;;;;;;;;;5055516;28;20039;-84
2024/02/04 03:49:33;;;;;;;50.53;8.75;;;;;;;;;;5056709;28;20046;-84
2024/02/04 03:52:00;;;;;;;41.08;8.23;;;;;;;;;;5040138;28;20068;-84
2024/02/04 03:54:27;;;;;;;46.53;8.23;;;;;;;;;;5055496;28;20094;-83
2024/02/04 03:56:55;;;;;;;39.75;8.40;;;;;;;;;;5040062;28;20041;-84
2024/02/04 03:59:22;;;;;;;42.78;8.05;;;;;;;;;;5038979;28;20386;-84
2024/02/04 04:01:49;;;;;;;45.88;7.82;;;;;;;;;;5039806;28;20040;-84
2024/02/04 04:04:17;;;;;;;41.53;8.73;;;;;;;;;;5039113;28;20119;-83
2024/02/04 04:06:45;;;;;;;35.92;8.32;;;;;;;;;;5039699;28;20041;-83
2024/02/04 04:09:13;;;;;;;45.17;7.75;;;;;;;;;;5038907;28;20036;-83
2024/02/04 04:11:40;;;;;;;34.45;8.13;;;;;;;;;;5055771;28;20045;-84
2024/02/04 04:14:07;;;;;;;49.55;9.38;;;;;;;;;;5055209;28;20457;-83
2024/02/04 04:16:34;;;;;;;39.03;9.05;;;;;;;;;;5039583;28;20045;-84
2024/02/04 04:19:02;;;;;;;52.72;9.15;;;;;;;;;;5039410;28;20048;-85
2024/02/04 04:21:29;;;;;;;52.85;7.85;;;;;;;;;;5038780;28;20044;-83
2024/02/04 04:23:56;;;;;;;37.33;8.38;;;;;;;;;;5040030;28;20044;-83
2024/02/04 04:26:24;;;;;;;49.05;8.77;;;;;;;;;;5091773;28;20100;-84
2024/02/04 04:28:51;;;;;;;44.75;7.03;;;;;;;;;;5059310;28;20047;-83
2024/02/04 04:31:18;;;;;;;48.22;8.52;;;;;;;;;;5044259;28;20048;-84
2024/02/04 04:33:45;;;;;;;35.55;7.72;;;;;;;;;;5032034;28;20052;-84
2024/02/04 04:36:12;;;;;;;54.50;9.40;;;;;;;;;;5014750;28;20427;-84
2024/02/04 04:38:40;;;;;;;39.67;8.68;;;;;;;;;;5016330;28;20041;-84
2024/02/04 04:41:07;;;;;;;38.47;8.02;;;;;;;;;;5014787;28;20041;-84
2024/02/04 04:43:38;;;;;;;43.40;7.45;;;;;;;;;;5016066;28;20038;-85
2024/02/04 04:46:05;;;;;;;40.15;9.07;;;;;;;;;;5015103;28;20049;-82
2024/02/04 04:48:32;;;;;;;40.35;9.43;;;;;;;;;;5015951;28;20440;-84
2024/02/04 04:50:59;;;;;;;40.03;8.27;;;;;;;;;;5015906;28;20053;-84
2024/02/04 04:53:26;;;;;;;42.90;9.32;;;;;;;;;;5015126;28;20136;-83
2024/02/04 04:55:53;;;;;;;43.17;8.75;;;;;;;;;;5015625;28;20041;-84
2024/02/04 04:58:20;;;;;;;39.03;7.60;;;;;;;;;;5014970;28;20055;-84
2024/02/04 05:00:48;;;;;;;38.25;8.23;;;;;;;;;;5015646;28;20046;-83
2024/02/04 05:03:15;;;;;;;32.25;7.75;;;;;;;;;;5014754;28;20124;-83
2024/02/04 05:05:42;;;;;;;45.38;7.80;;;;;;;;;;5015351;28;20534;-83
2024/02/04 05:08:09;;;;;;;40.15;8.48;;;;;;;;;;5014895;28;20560;-84
2024/02/04 05:10:36;;;;;;;35.88;7.43;;;;;;;;;;5015299;28;20416;-83
2024/02/04 05:13:03;;;;;;;37.60;8.95;;;;;;;;;;5015165;28;20045;-84
2024/02/04 05:15:30;;;;;;;46.30;8.32;;;;;;;;;;5014810;28;20037;-84
2024/02/04 05:17:58;;;;;;;35.97;7.53;;;;;;;;;;5015396;28;20385;-84
2024/02/04 05:20:25;;;;;;;36.63;7.57;;;;;;;;;;5014646;28;20111;-84
2024/02/04 05:22:53;;;;;;;36.67;8.48;;;;;;;;;;5014978;28;20067;-84
2024/02/04 05:25:21;;;;;;;48.28;10.27;;;;;;;;;;5026336;28;20068;-84
2024/02/04 05:27:48;;;;;;;35.78;8.70;;;;;;;;;;5034489;28;20475;-84
2024/02/04 05:30:15;;;;;;;50.63;9.30;;;;;;;;;;5038201;28;20055;-83
2024/02/04 05:32:44;;;;;;;30.00;8.13;;;;;;;;;;5058156;28;20394;-84
2024/02/04 05:35:11;;;;;;;46.88;8.20;;;;;;;;;;5057151;28;20056;-83
2024/02/04 05:37:38;;;;;;;30.60;7.50;;;;;;;;;;5074548;28;20113;-83
2024/02/04 05:40:06;;;;;;;43.60;9.27;;;;;;;;;;5057067;28;20062;-84
2024/02/04 05:42:35;;;;;;;33.63;9.57;;;;;;;;;;5058288;28;20103;-84
2024/02/04 05:45:03;;;;;;;56.03;9.07;;;;;;;;;;5058003;28;20051;-83
2024/02/04 05:47:30;;;;;;;39.72;8.60;;;;;;;;;;5072633;28;20123;-84
2024/02/04 05:49:57;;;;;;;44.78;9.25;;;;;;;;;;5057944;28;20059;-83
2024/02/04 05:52:25;;;;;;;34.13;8.35;;;;;;;;;;5056837;28;20048;-84
2024/02/04 05:54:52;;;;;;;36.55;8.73;;;;;;;;;;5057539;28;20040;-84
2024/02/04 05:57:20;;;;;;;43.72;9.70;;;;;;;;;;5073720;28;20040;-84
2024/02/04 05:59:52;;;;;;;48.85;10.13;;;;;;;;;;5057693;28;20055;-83
2024/02/04 06:02:19;;;;;;;44.05;8.63;;;;;;;;;;5073278;28;20043;-83
2024/02/04 06:04:48;;;;;;;46.78;8.93;;;;;;;;;;5057609;28;20535;-84
2024/02/04 06:07:15;;;;;;;39.70;8.50;;;;;;;;;;5073540;28;20386;-83
2024/02/04 06:09:42;;;;;;;41.47;8.73;;;;;;;;;;5057608;28;20066;-84
2024/02/04 06:12:09;;;;;;;42.80;9.10;;;;;;;;;;5056848;28;20064;-83
2024/02/04 06:14:39;;;;;;;40.92;9.25;;;;;;;;;;5057345;28;20040;-83
2024/02/04 06:17:08;;;;;;;38.30;9.25;;;;;;;;;;5073436;28;20390;-83
2024/02/04 06:19:35;;;;;;;40.10;8.82;;;;;;;;;;5057574;28;20546;-84
2024/02/04 06:22:03;;;;;;;30.08;7.72;;;;;;;;;;5074635;28;20064;-83
2024/02/04 06:24:30;;;;;;;39.08;8.48;;;;;;;;;;5053434;28;20060;-83
2024/02/04 06:26:57;;;;;;;36.15;8.27;;;;;;;;;;5053886;28;20387;-83
2024/02/04 06:29:25;;;;;;;44.20;8.48;;;;;;;;;;5036702;28;20101;-83
2024/02/04 06:31:52;;;;;;;31.05;7.82;;;;;;;;;;5053839;28;20098;-84
2024/02/04 06:34:19;;;;;;;43.83;9.45;;;;;;;;;;5057387;28;20040;-85
2024/02/04 06:36:46;;;;;;;32.63;8.00;;;;;;;;;;5074262;28;20058;-83
2024/02/04 06:39:13;;;;;;;40.90;8.93;;;;;;;;;;5056474;28;20475;-83
2024/02/04 06:41:41;;;;;;;44.72;8.77;;;;;;;;;;5057337;28;20044;-84
2024/02/04 06:44:08;;;;;;;33.10;8.23;;;;;;;;;;5056422;28;20045;-85
2024/02/04 06:46:35;;;;;;;38.08;7.97;;;;;;;;;;5057466;28;20051;-86
2024/02/04 06:49:02;;;;;;;35.80;8.75;;;;;;;;;;5057282;28;20056;-86
2024/02/04 06:51:29;;;;;;;43.08;7.82;;;;;;;;;;5073198;28;20090;-85
2024/02/04 06:53:56;;;;;;;35.05;9.27;;;;;;;;;;5057227;28;20048;-85
2024/02/04 06:56:23;;;;;;;34.03;8.45;;;;;;;;;;5056177;28;20118;-82
2024/02/04 06:58:50;;;;;;;36.83;7.60;;;;;;;;;;5057913;28;20047;-83
2024/02/04 07:01:17;;;;;;;42.58;8.73;;;;;;;;;;5060399;28;20036;-83
2024/02/04 07:03:44;;;;;;;39.28;8.40;;;;;;;;;;5061270;28;20055;-85
2024/02/04 07:06:11;;;;;;;46.05;9.07;;;;;;;;;;5081185;28;20037;-84
2024/02/04 07:08:39;;;;;;;44.05;8.50;;;;;;;;;;5116769;23;20046;-83
2024/02/04 07:11:06;;;;;;;36.70;7.72;;;;;;;;;;4999630;28;20393;-84
2024/02/04 07:13:32;;;;;;;45.28;8.80;;;;;;;;;;4998313;28;20042;-84
2024/02/04 07:15:59;;;;;;;34.03;8.48;;;;;;;;;;4998445;28;20448;-84
2024/02/04 07:18:26;;;;;;;37.38;8.32;;;;;;;;;;4997695;28;20419;-83
2024/02/04 07:20:53;;;;;;;39.85;8.70;;;;;;;;;;4997207;28;20484;-84
2024/02/04 07:23:21;;;;;;;35.03;8.18;;;;;;;;;;4991931;28;20046;-84
2024/02/04 07:25:48;;;;;;;31.75;8.43;;;;;;;;;;4996501;28;20402;-82
2024/02/04 07:28:14;;;;;;;41.22;8.57;;;;;;;;;;4995840;28;20048;-84
2024/02/04 07:30:41;;;;;;;44.58;8.43;;;;;;;;;;4996208;28;20058;-84
2024/02/04 07:33:08;;;;;;;36.50;7.43;;;;;;;;;;4969533;28;20045;-83
2024/02/04 07:35:35;;;;;;;42.25;8.95;;;;;;;;;;4976845;28;20049;-84
2024/02/04 07:38:02;;;;;;;39.50;9.38;;;;;;;;;;4960840;28;20053;-84
2024/02/04 07:40:30;;;;;;;33.80;7.05;;;;;;;;;;4976790;28;20039;-84
2024/02/04 07:42:57;;;;;;;44.90;8.13;;;;;;;;;;4960468;28;20046;-83
2024/02/04 07:45:24;;;;;;;35.85;9.32;;;;;;;;;;4960099;28;20038;-84
2024/02/04 07:47:50;;;;;;;32.92;7.60;;;;;;;;;;4976688;28;20047;-84
2024/02/04 07:50:17;;;;;;;40.85;7.90;;;;;;;;;;5001062;28;20038;-84
2024/02/04 07:52:44;;;;;;;34.35;8.20;;;;;;;;;;4986696;28;20093;-84
2024/02/04 07:55:11;;;;;;;38.70;7.80;;;;;;;;;;5000232;28;20482;-83
2024/02/04 07:57:38;;;;;;;31.10;7.75;;;;;;;;;;4993928;28;20055;-84
2024/02/04 08:00:10;;;;;;;34.35;8.13;;;;;;;;;;4992616;28;20047;-82
2024/02/04 08:02:37;;;;;;;34.70;8.13;;;;;;;;;;4991995;28;20121;-84
2024/02/04 08:05:05;;;;;;;44.60;8.43;;;;;;;;;;4991802;28;20042;-83
2024/02/04 08:07:32;;;;;;;40.37;8.67;;;;;;;;;;4993696;28;20441;-84
2024/02/04 08:09:59;;;;;;;40.30;8.20;;;;;;;;;;4973368;28;20055;-84
2024/02/04 08:12:26;;;;;;;34.38;8.07;;;;;;;;;;4986381;28;20129;-84
2024/02/04 08:14:53;;;;;;;31.95;7.20;;;;;;;;;;4972603;28;20042;-83
2024/02/04 08:17:20;;;;;;;41.30;8.77;;;;;;;;;;4955761;28;20118;-84
2024/02/04 08:19:46;;;;;;;32.00;7.53;;;;;;;;;;4991755;28;20041;-84
2024/02/04 08:22:13;;;;;;;37.67;8.95;;;;;;;;;;4975403;28;20073;-83
2024/02/04 08:24:40;;;;;;;37.92;7.40;;;;;;;;;;4959843;28;20046;-84
2024/02/04 08:27:07;;;;;;;37.50;8.38;;;;;;;;;;4974069;28;20386;-83
2024/02/04 08:29:34;;;;;;;39.72;9.35;;;;;;;;;;4974358;28;20096;-83
2024/02/04 08:32:02;;;;;;;40.58;7.57;;;;;;;;;;5002280;28;20045;-83
2024/02/04 08:34:29;;;;;;;39.17;8.87;;;;;;;;;;4961937;28;20135;-84
2024/02/04 08:36:56;;;;;;;42.30;8.95;;;;;;;;;;4959570;28;20125;-83
2024/02/04 08:39:23;;;;;;;36.65;9.00;;;;;;;;;;4992719;28;20433;-84
2024/02/04 08:41:49;;;;;;;42.03;8.38;;;;;;;;;;4975958;28;20050;-85
2024/02/04 08:44:16;;;;;;;33.83;7.53;;;;;;;;;;4974908;28;20043;-88
2024/02/04 08:47:01;;;;;;;37.42;7.50;;;;;;;;;;4964323;28;20061;-85
2024/02/04 08:49:29;;;;;;;37.95;9.20;;;;;;;;;;4943173;28;20042;-85
2024/02/04 08:51:56;;;;;;;39.00;9.23;;;;;;;;;;4982055;28;20070;-85
2024/02/04 08:54:23;;;;;;;41.53;7.88;;;;;;;;;;4966069;28;20077;-85
2024/02/04 08:56:50;;;;;;;39.33;8.27;;;;;;;;;;4969458;28;20400;-85
2024/02/04 08:59:17;;;;;;;39.17;8.18;;;;;;;;;;4991149;28;20030;-86
2024/02/04 09:01:44;;;;;;;37.20;7.90;;;;;;;;;;4979881;28;20129;-82
2024/02/04 09:04:10;;;;;;;41.22;7.47;;;;;;;;;;4959052;28;20420;-83
2024/02/04 09:06:37;;;;;;;33.88;8.18;;;;;;;;;;4988612;28;20493;-82
2024/02/04 09:09:04;;;;;;;38.90;7.90;;;;;;;;;;4962987;28;20053;-80
2024/02/04 09:11:31;;;;;;;47.88;6.93;;;;;;;;;;4974594;28;20477;-82
2024/02/04 09:13:57;;;;;;;30.83;8.73;;;;;;;;;;4966559;28;20049;-81
2024/02/04 09:16:24;;;;;;;34.80;8.60;;;;;;;;;;4971552;28;20054;-81
2024/02/04 09:18:51;;;;;;;40.50;8.88;;;;;;;;;;4992372;28;20444;-82
2024/02/04 09:21:18;;;;;;;32.13;7.60;;;;;;;;;;4991315;28;20054;-81
2024/02/04 09:23:44;;;;;;;34.40;9.05;;;;;;;;;;4992736;28;20039;-82
2024/02/04 09:26:11;;;;;;;36.83;8.27;;;;;;;;;;4991711;28;20437;-81
2024/02/04 09:28:41;;;;;;;26.98;6.90;;;;;;;;;;4991041;28;20124;-81
2024/02/04 09:31:09;;;;;;;28.67;7.45;;;;;;;;;;4991577;28;20058;-81
2024/02/04 09:33:37;;;;;;;32.70;8.00;;;;;;;;;;4990730;28;20058;-81
2024/02/04 09:36:04;;;;;;;32.85;8.23;;;;;;;;;;4991559;28;20070;-81
2024/02/04 09:38:32;;;;;;;26.38;6.00;;;;;;;;;;4975196;28;20053;-82
2024/02/04 09:41:00;;;;;;;37.97;7.68;;;;;;;;;;4990482;28;20053;-82
2024/02/04 09:43:27;;;;;;;41.80;7.40;;;;;;;;;;4958152;28;20052;-81
2024/02/04 09:45:54;;;;;;;30.75;7.35;;;;;;;;;;4991588;28;20043;-80
2024/02/04 09:48:23;;;;;;;38.67;8.00;;;;;;;;;;4974144;28;20137;-82
2024/02/04 09:50:51;;;;;;;29.02;7.35;;;;;;;;;;4998972;28;20054;-81
2024/02/04 09:53:26;;;;;;;32.22;7.63;;;;;;;;;;4974304;28;20042;-82
2024/02/04 09:55:54;;;;;;;34.47;7.70;;;;;;;;;;4991507;28;20132;-82
2024/02/04 09:58:21;;;;;;;31.55;8.07;;;;;;;;;;4989750;28;20050;-81
2024/02/04 10:00:51;;;;;;;38.17;7.32;;;;;;;;;;4992057;28;20508;-82
2024/02/04 10:03:18;;;;;;;39.13;8.05;;;;;;;;;;4990954;28;20053;-82
2024/02/04 10:05:44;;;;;;;30.90;8.65;;;;;;;;;;4990350;28;20057;-82
2024/02/04 10:08:12;;;;;;;34.85;8.85;;;;;;;;;;4987603;28;20100;-81
2024/02/04 10:10:43;;;;;;;35.13;9.05;;;;;;;;;;4975063;28;20500;-81
2024/02/04 10:13:10;;;;;;;39.15;8.05;;;;;;;;;;4973762;28;20050;-81
2024/02/04 10:15:37;;;;;;;43.38;13.68;;;;;;;;;;4972732;28;20059;-82
2024/02/04 10:18:05;;;;;;;35.25;11.27;;;;;;;;;;4956145;28;20047;-79
2024/02/04 10:20:32;;;;;;;43.40;12.23;;;;;;;;;;4989517;28;20046;-82
2024/02/04 10:22:58;;;;;;;34.20;9.30;;;;;;;;;;4978465;28;20625;-82
2024/02/04 10:25:26;;;;;;;32.97;8.13;;;;;;;;;;4990838;28;20045;-81
2024/02/04 10:27:53;;;;;;;34.20;9.20;;;;;;;;;;4991339;28;20046;-81
2024/02/04 10:30:20;;;;;;;49.83;8.45;;;;;;;;;;4974952;28;20046;-81
2024/02/04 10:32:50;;;;;;;28.38;8.73;;;;;;;;;;4993067;28;20046;-81
2024/02/04 10:35:22;;;;;;;43.40;13.38;;;;;;;;;;4994290;28;20388;-81
2024/02/04 10:37:52;;;;;;;35.42;8.48;;;;;;;;;;4994579;28;20054;-81
2024/02/04 10:40:19;;;;;;;35.22;7.38;;;;;;;;;;4995910;28;20046;-81
2024/02/04 10:42:46;;;;;;;34.42;7.35;;;;;;;;;;4992011;28;20046;-82
2024/02/04 10:45:17;;;;;;;36.92;6.78;;;;;;;;;;5010679;28;20053;-82
2024/02/04 10:47:53;;;;;;;29.92;6.72;;;;;;;;;;5016491;28;20077;-82
2024/02/04 10:50:21;;;;;;;31.10;7.25;;;;;;;;;;5015834;28;20041;-81
2024/02/04 10:52:49;;;;;;;39.08;8.40;;;;;;;;;;4994662;28;20050;-81
2024/02/04 10:55:17;;;;;;;31.08;7.10;;;;;;;;;;4985669;28;20046;-82
2024/02/04 10:57:44;;;;;;;27.70;7.25;;;;;;;;;;4987458;28;20054;-81
2024/02/04 11:00:12;;;;;;;35.72;8.63;;;;;;;;;;4991742;28;20038;-81
2024/02/04 11:02:40;;;;;;;35.15;7.40;;;;;;;;;;4996312;28;20054;-81
2024/02/04 11:05:08;;;;;;;39.63;8.00;;;;;;;;;;4995959;28;20051;-81
2024/02/04 11:07:36;;;;;;;37.58;7.63;;;;;;;;;;4995270;28;20054;-87
2024/02/04 11:10:04;;;;;;;32.50;7.10;;;;;;;;;;4980762;28;20053;-86
2024/02/04 11:12:35;;;;;;;29.27;8.20;;;;;;;;;;4983112;28;20049;-88
2024/02/04 11:15:06;;;;;;;32.78;7.28;;;;;;;;;;4978744;28;20169;-83
2024/02/04 11:17:57;;;;;;;37.20;8.18;;;;;;;;;;4962127;28;20046;-83
2024/02/04 11:21:01;;;;;;;33.55;7.53;;;;;;;;;;4977728;28;20055;-86
2024/02/04 11:23:50;;;;;;;30.55;7.88;;;;;;;;;;4974548;28;20942;-86
2024/02/04 11:26:17;;;;;;;;;;;;;;;;;;4977719;28;20097;-85
2024/02/04 11:28:44;;;;;;;36.20;7.72;;;;;;;;;;4978681;28;20028;-81
2024/02/04 11:31:16;;;;;;;41.58;8.57;;;;;;;;;;4978239;28;20046;-81
2024/02/04 11:33:45;;;;;;;34.90;7.63;;;;;;;;;;4978395;28;20054;-81
2024/02/04 11:36:13;;;;;;;44.40;8.80;;;;;;;;;;4978216;28;20393;-81
2024/02/04 11:38:41;;;;;;;35.50;7.85;;;;;;;;;;4978858;28;20133;-80
2024/02/04 11:41:11;;;;;;;31.63;7.40;;;;;;;;;;4975985;28;20150;-80
2024/02/04 11:43:37;;;;;;;36.88;7.80;;;;;;;;;;4974401;28;20051;-83
2024/02/04 11:46:05;;;;;;;29.33;7.53;;;;;;;;;;4974386;28;20047;-81
2024/02/04 11:48:33;;;;;;;47.88;8.20;;;;;;;;;;4982226;28;20053;-80
2024/02/04 11:51:01;;;;;;;29.88;6.90;;;;;;;;;;4970116;28;20056;-82
2024/02/04 11:53:32;;;;;;;36.72;7.80;;;;;;;;;;4993027;28;20096;-81
2024/02/04 11:56:03;;;;;;;26.60;7.05;;;;;;;;;;4965521;28;20046;-81
2024/02/04 11:58:31;;;;;;;35.45;7.60;;;;;;;;;;4994354;28;20046;-81
2024/02/04 12:00:58;;;;;;;31.85;7.53;;;;;;;;;;4988885;28;20043;-82
2024/02/04 12:03:33;;;;;;;39.20;7.72;;;;;;;;;;4973945;28;20129;-81
2024/02/04 12:06:01;;;;;;;38.92;7.50;;;;;;;;;;4971919;28;20057;-81
2024/02/04 12:08:32;;;;;;;31.52;7.20;;;;;;;;;;4976648;28;20128;-81
2024/02/04 12:11:00;;;;;;;39.15;7.40;;;;;;;;;;4971160;28;20077;-81
2024/02/04 12:13:30;;;;;;;36.60;7.50;;;;;;;;;;4983192;28;20035;-81
2024/02/04 12:15:57;;;;;;;34.60;8.20;;;;;;;;;;4983739;28;20390;-81
2024/02/04 12:18:24;;;;;;;35.70;7.22;;;;;;;;;;4941612;28;20426;-85
2024/02/04 12:20:51;;;;;;;32.40;7.25;;;;;;;;;;4972762;28;20046;-82
2024/02/04 12:23:23;;;;;;;38.70;7.15;;;;;;;;;;4974733;28;20141;-82
2024/02/04 12:25:50;;;;;;;37.05;7.43;;;;;;;;;;4961583;28;20051;-81
2024/02/04 12:28:17;;;;;;;35.65;7.72;;;;;;;;;;4955843;28;20043;-79
2024/02/04 12:30:54;;;;;;;44.17;7.70;;;;;;;;;;4973740;28;20043;-81
2024/02/04 12:33:21;;;;;;;37.10;6.78;;;;;;;;;;4977043;28;20035;-81
2024/02/04 12:35:51;;;;;;;42.92;7.78;;;;;;;;;;4993691;28;20043;-82
2024/02/04 12:38:17;;;;;;;;;;;;;;;;;;4994749;28;20050;-82
2024/02/04 12:40:44;;;;;;;36.00;8.20;;;;;;;;;;4965558;28;19937;-81
2024/02/04 12:43:11;;;;;;;35.22;6.88;;;;;;;;;;4942724;28;20155;-81
2024/02/04 12:45:38;;;;;;;35.22;6.60;;;;;;;;;;4975198;28;20287;-81
2024/02/04 12:48:06;;;;;;;26.92;6.60;;;;;;;;;;4957548;28;20417;-81
2024/02/04 12:50:35;;;;;;;34.85;6.95;;;;;;;;;;4942303;28;20042;-81
2024/02/04 12:53:04;;;;;;;33.53;6.38;;;;;;;;;;4973833;28;20046;-81
2024/02/04 12:55:33;;;;;;;33.90;9.18;;;;;;;;;;4976659;28;20070;-81
2024/02/04 12:58:16;;;;;;;39.33;8.85;;;;;;;;;;4966072;28;20129;-80
2024/02/04 13:00:43;;;;;;;37.20;7.05;;;;;;;;;;4972011;28;20039;-80
2024/02/04 13:03:10;;;;;;;31.52;7.32;;;;;;;;;;4974533;28;20057;-80
2024/02/04 13:05:37;;;;;;;40.30;9.32;;;;;;;;;;4982139;28;20052;-80
2024/02/04 13:08:07;;;;;;;32.88;7.57;;;;;;;;;;4986968;28;20121;-78
2024/02/04 13:10:36;;;;;;;25.65;6.80;;;;;;;;;;4984915;28;20104;-80
2024/02/04 13:13:07;;;;;;;37.40;7.85;;;;;;;;;;4990214;28;20046;-82
2024/02/04 13:15:43;;;;;;;31.83;7.07;;;;;;;;;;4973655;28;20133;-80
2024/02/04 13:18:11;;;;;;;23.17;6.13;;;;;;;;;;4991025;28;20058;-80
2024/02/04 13:20:40;;;;;;;29.50;6.78;;;;;;;;;;4983440;28;20042;-79
2024/02/04 13:23:10;;;;;;;30.77;7.43;;;;;;;;;;4973710;28;20096;-79
2024/02/04 13:25:37;;;;;;;37.95;6.20;;;;;;;;;;4974342;28;20049;-79
2024/02/04 13:28:04;;;;;;;41.55;7.68;;;;;;;;;;4971421;28;20478;-82
2024/02/04 13:30:31;;;;;;;33.88;6.80;;;;;;;;;;4972069;28;20547;-79
2024/02/04 13:33:01;;;;;;;35.37;6.23;;;;;;;;;;4987977;28;20038;-80
2024/02/04 13:35:28;;;;;;;;;;;;;;;;;;4986932;28;20364;-80
2024/02/04 13:37:55;;;;;;;28.85;7.22;;;;;;;;;;4990886;28;19976;-80
2024/02/04 13:40:24;;;;;;;32.65;7.45;;;;;;;;;;4966395;28;20392;-80
2024/02/04 13:42:51;;;;;;;39.95;7.05;;;;;;;;;;4983235;28;20471;-80
2024/02/04 13:45:17;;;;;;;31.77;6.32;;;;;;;;;;4987134;28;20054;-80
2024/02/04 13:47:44;;;;;;;41.58;6.47;;;;;;;;;;4965639;28;20329;-80
2024/02/04 13:50:11;;;;;;;26.88;6.95;;;;;;;;;;4986517;28;20140;-80
2024/02/04 13:52:39;;;;;;;31.88;6.40;;;;;;;;;;4990471;28;20544;-80
2024/02/04 13:55:07;;;;;;;39.92;7.18;;;;;;;;;;4987304;28;20070;-79
2024/02/04 13:57:34;;;;;;;39.20;8.85;;;;;;;;;;4966933;28;20049;-82
2024/02/04 14:00:04;;;;;;;30.63;7.10;;;;;;;;;;4984067;28;20046;-79
2024/02/04 14:02:31;;;;;;;36.90;7.00;;;;;;;;;;4980835;28;20486;-79
2024/02/04 14:04:58;;;;;;;39.08;10.23;;;;;;;;;;4988390;28;20072;-80
2024/02/04 14:07:25;;;;;;;28.50;6.38;;;;;;;;;;4979899;28;20376;-83
2024/02/04 14:09:52;;;;;;;35.17;6.80;;;;;;;;;;4984244;28;20046;-83
2024/02/04 14:12:19;;;;;;;34.92;8.93;;;;;;;;;;4981392;28;20038;-82
2024/02/04 14:14:45;;;;;;;30.55;7.70;;;;;;;;;;4986531;28;20359;-82
2024/02/04 14:17:12;;;;;;;28.73;6.50;;;;;;;;;;4986079;28;20632;-82
2024/02/04 14:19:38;;;;;;;34.72;8.60;;;;;;;;;;4992160;28;20457;-82
2024/02/04 14:22:05;;;;;;;30.10;7.15;;;;;;;;;;4991920;28;20062;-82
2024/02/04 14:24:32;;;;;;;32.33;7.85;;;;;;;;;;4993275;28;20093;-81
2024/02/04 14:26:59;;;;;;;31.75;7.68;;;;;;;;;;4993301;28;20066;-81
2024/02/04 14:29:26;;;;;;;38.40;7.68;;;;;;;;;;4991472;28;20122;-82
2024/02/04 14:31:53;;;;;;;40.47;8.05;;;;;;;;;;4990852;28;20125;-83
2024/02/04 14:34:19;;;;;;;37.97;9.93;;;;;;;;;;4990709;28;20482;-82
2024/02/04 14:36:46;;;;;;;42.33;11.65;;;;;;;;;;4989988;28;20051;-82